createdAt,value
2023-03-18T00:01:23.778Z,212967.00
2023-03-18T00:07:26.144Z,212967.00
2023-03-18T00:13:28.497Z,212953.00
2023-03-18T00:19:30.849Z,212931.00
2023-03-18T00:25:33.219Z,212925.00
2023-03-18T00:31:36.170Z,212911.00
2023-03-18T00:37:38.822Z,212891.00
2023-03-18T00:43:47.486Z,212869.00
2023-03-18T00:49:50.521Z,212856.00
2023-03-18T00:55:53.511Z,212816.00
2023-03-18T01:01:56.025Z,212800.00
2023-03-18T01:07:59.205Z,212760.00
2023-03-18T01:14:01.962Z,212760.00
2023-03-18T01:20:04.596Z,212752.00
2023-03-18T01:26:07.473Z,212706.00
2023-03-18T01:32:11.535Z,212720.00
2023-03-18T01:38:14.339Z,212700.00
2023-03-18T01:44:21.225Z,212700.00
2023-03-18T01:50:31.352Z,212680.00
2023-03-18T01:56:37.378Z,212678.00
2023-03-18T02:02:41.347Z,212638.00
2023-03-18T02:08:44.375Z,212618.00
2023-03-18T02:14:47.045Z,212610.00
2023-03-18T02:20:49.307Z,212604.00
2023-03-18T02:27:23.346Z,212596.00
2023-03-18T02:33:31.302Z,212618.00
2023-03-18T02:39:34.520Z,212610.00
2023-03-18T02:45:46.371Z,212618.00
2023-03-18T02:51:50.701Z,212610.00
2023-03-18T02:57:53.191Z,212604.00
2023-03-18T03:03:56.731Z,212596.00
2023-03-18T03:09:59.251Z,212616.00
2023-03-18T03:16:02.866Z,212638.00
2023-03-18T03:22:05.591Z,212672.00
2023-03-18T03:28:09.076Z,212678.00
2023-03-18T03:34:12.233Z,212680.00
2023-03-18T03:40:17.277Z,212678.00
2023-03-18T03:46:19.722Z,212678.00
2023-03-18T03:52:22.234Z,212646.00
2023-03-18T03:58:26.022Z,212638.00
2023-03-18T04:04:29.487Z,212646.00
2023-03-18T04:10:35.050Z,212666.00
2023-03-18T04:16:37.819Z,212672.00
2023-03-18T04:22:40.925Z,212692.00
2023-03-18T04:28:45.541Z,212714.00
2023-03-18T04:34:50.985Z,212788.00
2023-03-18T04:40:53.615Z,212869.00
2023-03-18T04:46:56.017Z,212961.00
2023-03-18T04:53:00.487Z,213081.00
2023-03-18T04:59:05.624Z,213294.00
2023-03-18T05:05:09.609Z,214612.00
2023-03-18T05:11:17.829Z,216367.00
2023-03-18T05:17:21.769Z,218214.00
2023-03-18T05:23:34.772Z,218029.00
2023-03-18T05:29:38.803Z,217546.00
2023-03-18T05:35:47.573Z,217979.00
2023-03-18T05:41:52.811Z,219233.00
2023-03-18T05:48:00.457Z,220756.00
2023-03-18T05:54:05.169Z,221082.00
2023-03-18T06:00:13.741Z,221573.00
2023-03-18T06:06:20.158Z,221128.00
2023-03-18T06:12:27.726Z,222805.00
2023-03-18T06:18:30.417Z,223628.00
2023-03-18T06:24:33.056Z,223026.00
2023-03-18T06:30:35.673Z,223034.00
2023-03-18T06:36:38.154Z,224068.00
2023-03-18T06:42:45.094Z,224871.00
2023-03-18T06:48:54.979Z,224712.00
2023-03-18T06:55:04.698Z,224855.00
2023-03-18T07:01:08.559Z,224562.00
2023-03-18T07:07:19.721Z,223307.00
2023-03-18T07:13:22.290Z,223822.00
2023-03-18T07:19:24.635Z,224962.00
2023-03-18T07:25:27.248Z,224630.00
2023-03-18T07:31:31.102Z,224562.00
2023-03-18T07:37:33.935Z,223709.00
2023-03-18T07:43:37.462Z,223882.00
2023-03-18T07:49:39.892Z,224742.00
2023-03-18T07:55:42.413Z,224802.00
2023-03-18T08:01:45.398Z,224285.00
2023-03-18T08:07:47.780Z,224689.00
2023-03-18T08:13:50.438Z,224895.00
2023-03-18T08:19:52.693Z,224646.00
2023-03-18T08:25:55.295Z,223606.00
2023-03-18T08:31:58.141Z,224172.00
2023-03-18T08:38:01.016Z,224863.00
2023-03-18T08:44:06.752Z,225180.00
2023-03-18T08:50:09.746Z,225143.00
2023-03-18T08:56:13.500Z,225730.00
2023-03-18T09:02:18.987Z,225121.00
2023-03-18T09:08:22.577Z,225301.00
2023-03-18T09:14:24.795Z,224925.00
2023-03-18T09:20:27.418Z,224689.00
2023-03-18T09:26:29.675Z,224697.00
2023-03-18T09:32:31.902Z,224511.00
2023-03-18T09:38:34.192Z,224750.00
2023-03-18T09:44:37.234Z,224054.00
2023-03-18T09:51:05.886Z,223569.00
2023-03-18T09:57:23.140Z,223709.00
2023-03-18T10:03:36.464Z,223086.00
2023-03-18T10:09:48.974Z,221947.00
2023-03-18T10:15:57.091Z,222095.00
2023-03-18T10:22:10.038Z,222767.00
2023-03-18T10:28:57.056Z,223256.00
2023-03-18T10:35:34.960Z,222308.00
2023-03-18T10:41:38.853Z,222967.00
2023-03-18T10:47:45.218Z,221977.00
2023-03-18T10:53:59.448Z,222589.00
2023-03-18T11:00:01.864Z,223747.00
2023-03-18T11:06:05.228Z,221904.00
2023-03-18T11:12:14.556Z,222618.00
2023-03-18T11:18:21.386Z,223143.00
2023-03-18T11:24:36.617Z,223940.00
2023-03-18T11:30:57.177Z,224030.00
2023-03-18T11:37:04.875Z,222676.00
2023-03-18T11:43:18.961Z,222929.00
2023-03-18T11:49:24.024Z,222521.00
2023-03-18T11:55:32.285Z,223293.00
2023-03-18T12:01:42.571Z,222988.00
2023-03-18T12:08:01.351Z,222883.00
2023-03-18T12:14:34.898Z,222656.00
2023-03-18T12:21:15.708Z,221367.00
2023-03-18T12:27:38.303Z,219220.00
2023-03-18T12:33:57.128Z,218152.00
2023-03-18T12:40:06.691Z,217817.00
2023-03-18T12:46:30.855Z,216901.00
2023-03-18T12:52:45.576Z,216191.00
2023-03-18T12:59:08.036Z,215929.00
2023-03-18T13:05:33.632Z,215748.00
2023-03-18T13:11:51.265Z,215552.00
2023-03-18T13:17:58.934Z,215642.00
2023-03-18T13:24:14.063Z,215447.00
2023-03-18T13:30:31.541Z,215496.00
2023-03-18T13:36:47.213Z,215337.00
2023-03-18T13:42:51.239Z,215552.00
2023-03-18T13:49:02.040Z,215463.00
2023-03-18T13:55:28.090Z,215449.00
2023-03-18T14:01:33.613Z,215496.00
2023-03-18T14:07:47.209Z,215477.00
2023-03-18T14:13:54.809Z,215449.00
2023-03-18T14:19:57.483Z,215261.00
2023-03-18T14:26:18.276Z,215146.00
2023-03-18T14:32:23.510Z,215204.00
2023-03-18T14:38:52.919Z,215022.00
2023-03-18T14:45:00.775Z,214980.00
2023-03-18T14:51:12.118Z,214903.00
2023-03-18T14:57:14.516Z,214681.00
2023-03-18T15:03:35.190Z,214578.00
2023-03-18T15:09:38.555Z,214424.00
2023-03-18T15:15:42.439Z,214515.00
2023-03-18T15:21:45.502Z,214390.00
2023-03-18T15:27:48.622Z,214376.00
2023-03-18T15:34:16.429Z,214329.00
2023-03-18T15:40:29.100Z,214321.00
2023-03-18T15:46:32.713Z,214355.00
2023-03-18T15:52:40.730Z,214225.00
2023-03-18T15:58:45.159Z,214177.00
2023-03-18T16:04:48.821Z,214211.00
2023-03-18T16:10:54.096Z,214205.00
2023-03-18T16:16:56.864Z,214191.00
2023-03-18T16:23:00.023Z,214177.00
2023-03-18T16:29:02.830Z,214133.00
2023-03-18T16:35:05.186Z,214107.00
2023-03-18T16:41:08.254Z,214058.00
2023-03-18T16:47:30.658Z,214003.00
2023-03-18T16:53:33.547Z,213928.00
2023-03-18T16:59:37.283Z,213928.00
2023-03-18T17:05:40.215Z,213872.00
2023-03-18T17:11:43.793Z,213894.00
2023-03-18T17:17:47.787Z,213844.00
2023-03-18T17:23:50.465Z,213894.00
2023-03-18T17:29:53.767Z,213852.00
2023-03-18T17:35:57.349Z,213830.00
2023-03-18T17:42:00.153Z,213830.00
2023-03-18T17:48:26.265Z,213838.00
2023-03-18T17:54:31.699Z,213797.00
2023-03-18T18:00:34.312Z,213778.00
2023-03-18T18:06:36.957Z,213762.00
2023-03-18T18:12:39.333Z,213803.00
2023-03-18T18:18:42.066Z,213811.00
2023-03-18T18:24:47.175Z,213838.00
2023-03-18T18:30:50.460Z,213844.00
2023-03-18T18:36:52.918Z,213858.00
2023-03-18T18:42:55.455Z,213872.00
2023-03-18T18:48:57.973Z,213920.00
2023-03-18T18:55:00.839Z,213942.00
2023-03-18T19:01:03.172Z,213914.00
2023-03-18T19:07:06.893Z,213934.00
2023-03-18T19:13:14.225Z,213963.00
2023-03-18T19:19:19.839Z,213969.00
2023-03-18T19:25:22.257Z,213934.00
2023-03-18T19:31:27.145Z,213892.00
2023-03-18T19:37:32.648Z,213872.00
2023-03-18T19:43:35.298Z,213852.00
2023-03-18T19:49:39.549Z,213830.00
2023-03-18T19:55:42.691Z,213844.00
2023-03-18T20:01:45.024Z,213858.00
2023-03-18T20:07:47.345Z,213858.00
2023-03-18T20:13:49.582Z,213852.00
2023-03-18T20:19:51.977Z,213858.00
2023-03-18T20:25:54.622Z,213852.00
2023-03-18T20:31:59.334Z,213872.00
2023-03-18T20:38:09.766Z,213908.00
2023-03-18T20:44:13.410Z,213844.00
2023-03-18T20:50:21.496Z,213816.00
2023-03-18T20:56:24.147Z,213756.00
2023-03-18T21:02:32.431Z,213742.00
2023-03-18T21:08:34.681Z,213748.00
2023-03-18T21:14:37.707Z,213816.00
2023-03-18T21:20:40.350Z,213803.00
2023-03-18T21:26:51.353Z,213770.00
2023-03-18T21:33:30.006Z,213776.00
2023-03-18T21:39:32.869Z,213811.00
2023-03-18T21:45:35.230Z,213748.00
2023-03-18T21:51:40.142Z,213797.00
2023-03-18T21:57:43.417Z,213797.00
2023-03-18T22:03:47.788Z,213803.00
2023-03-18T22:09:50.021Z,213778.00
2023-03-18T22:15:53.623Z,213756.00
2023-03-18T22:21:55.865Z,213748.00
2023-03-18T22:27:59.284Z,213748.00
2023-03-18T22:34:01.678Z,213714.00
2023-03-18T22:40:04.740Z,213681.00
2023-03-18T22:46:09.570Z,213667.00
2023-03-18T22:52:23.693Z,213623.00
2023-03-18T22:58:27.994Z,213561.00
2023-03-18T23:04:30.955Z,213473.00
2023-03-18T23:10:33.849Z,213417.00
2023-03-18T23:16:35.880Z,213344.00
2023-03-18T23:22:38.232Z,213292.00
2023-03-18T23:28:44.923Z,213206.00
2023-03-18T23:34:48.099Z,213170.00
2023-03-18T23:40:50.246Z,213103.00
2023-03-18T23:46:52.928Z,213019.00
2023-03-18T23:52:55.076Z,212939.00
2023-03-18T23:58:57.455Z,212856.00
